Latest Weather Observations for Parkes Airport

IDN60801

Issued at 11:22 am EDT Wednesday 16 January 2019 (issued every 10 minutes, with the page automatically refreshed every 10 minutes)

About weather observations | Map of weather stations | Latest weather observations for NSW | Other Formats
Station Details ID: 065068 Name: PARKES AIRPORT AWS Lat: -33.13 Lon: 148.24 Height: 323.3 m
Data from the previous 72 hours. | See also: Recent months at Parkes Airport
Date/Time
EDT
Temp
°C
App
Temp
°C
Dew
Point
°C
Rel
Hum
%
Delta-T
°C
Wind Press
QNH
hPa
Press
MSL
hPa
Rain since
9am
mm
Dir  Spd
km/h
Gust
km/h
Spd
kts
Gust
kts
16/11:00am 39.6 35.9 6.1 13 18.9 SSW 15 22 8 12 1011.4 1009.5 0.0
16/10:30am 39.3 36.1 6.9 14 18.5 SW 13 19 7 10 1011.6 1009.7 0.0
16/10:00am 38.6 36.4 9.2 17 17.3 SW 11 17 6 9 1011.6 1009.7 0.0
16/09:30am 37.0 35.1 11.8 22 15.3 SSW 13 17 7 9 1011.6 1009.7 0.0
16/09:00am 33.9 33.6 12.8 28 12.8 SW 6 7 3 4 1011.6 1009.7 0.0
16/08:30am 32.5 31.6 12.7 30 12.0 SW 9 13 5 7 1011.6 1009.7 0.0
16/08:00am 30.7 30.5 13.5 35 10.5 ENE 7 9 4 5 1011.3 1009.4 0.0
16/07:30am 29.1 28.7 12.5 36 9.9 ESE 6 9 3 5 1010.9 1009.0 0.0
16/07:00am 26.8 25.6 12.8 42 8.3 E 11 13 6 7 1010.3 1008.5 0.0
16/06:30am 25.4 24.7 13.3 47 7.2 ENE 9 9 5 5 1009.9 1008.0 0.0
16/06:00am 24.6 24.0 13.5 50 6.6 ENE 9 13 5 7 1009.6 1007.7 0.0
16/05:30am 25.9 26.9 13.1 45 7.6 CALM 0 9 0 5 1009.4 1007.5 0.0
16/05:00am 26.0 25.5 12.8 44 7.8 NE 7 11 4 6 1009.2 1007.3 0.0
16/04:30am 26.6 25.8 13.0 43 8.1 ENE 9 13 5 7 1009.2 1007.3 0.0
16/04:00am 27.8 26.9 12.6 39 9.0 NE 9 11 5 6 1009.4 1007.5 0.0
16/03:30am 27.9 27.6 13.4 40 8.7 NNE 7 11 4 6 1009.5 1007.6 0.0
16/03:00am 28.3 27.8 12.6 38 9.3 ENE 7 9 4 5 1010.2 1008.4 0.0
16/02:30am 29.6 30.1 11.6 33 10.6 CALM 0 6 0 3 1010.8 1008.9 0.0
16/02:00am 30.8 29.1 11.2 30 11.5 N 11 13 6 7 1011.2 1009.3 0.0
16/01:30am 31.2 29.3 10.5 28 12.0 E 11 13 6 7 1011.5 1009.6 0.0
16/01:00am 33.4 30.8 9.4 23 13.8 SSE 13 17 7 9 1011.9 1010.0 0.0
16/12:30am 34.7 30.2 8.4 20 15.0 SW 22 28 12 15 1012.2 1010.3 0.0
16/12:00am 31.9 29.1 10.0 26 12.7 WNW 15 19 8 10 1011.5 1009.6 0.0
 
Date/Time
EDT
Temp
°C
App
Temp
°C
Dew
Point
°C
Rel
Hum
%
Delta-T
°C
Wind Press
QNH
hPa
Press
MSL
hPa
Rain since
9am
mm
Dir  Spd
km/h
Gust
km/h
Spd
kts
Gust
kts
15/11:30pm 31.7 28.1 9.8 26 12.6 E 19 22 10 12 1010.3 1008.5 0.0
15/11:00pm 31.2 29.2 10.0 27 12.2 E 11 13 6 7 1010.6 1008.8 0.0
15/10:30pm 32.6 31.5 10.0 25 13.1 SSW 6 11 3 6 1010.5 1008.7 0.0
15/10:00pm 32.2 31.0 9.7 25 13.0 N 6 7 3 4 1010.3 1008.5 0.0
15/09:30pm 33.4 31.2 9.4 23 13.8 E 11 13 6 7 1010.0 1008.2 0.0
15/09:00pm 34.9 33.1 7.9 19 15.3 S 7 9 4 5 1009.9 1008.0 0.0
15/08:30pm 37.6 35.7 6.6 15 17.5 SSW 6 6 3 3 1009.4 1007.5 0.0
15/08:00pm 38.9 35.8 5.5 13 18.6 W 11 17 6 9 1009.1 1007.2 0.0
15/07:30pm 41.3 37.3 4.9 11 20.3 W 15 19 8 10 1008.9 1007.0 0.0
15/07:00pm 41.7 36.6 3.9 10 20.9 W 20 30 11 16 1008.8 1006.9 0.0
15/06:30pm 42.4 36.6 4.4 10 21.2 W 24 43 13 23 1008.7 1006.8 0.0
15/06:00pm 42.3 37.4 4.3 10 21.2 W 19 26 10 14 1008.8 1006.9 0.0
15/05:30pm 42.9 39.3 4.8 10 21.4 WNW 13 26 7 14 1008.9 1007.0 0.0
15/05:00pm 42.7 37.0 3.1 9 21.7 WSW 22 32 12 17 1009.4 1007.5 0.0
15/04:30pm 41.6 39.4 5.2 11 20.5 SSW 6 11 3 6 1009.6 1007.7 0.0
15/04:00pm 42.3 36.1 4.3 10 21.2 W 26 44 14 24 1010.0 1008.2 0.0
15/03:30pm 41.6 36.1 3.8 10 20.8 W 22 32 12 17 1010.5 1008.7 0.0
15/03:00pm 42.7 37.3 4.6 10 21.4 W 22 50 12 27 1011.1 1009.2 0.0
15/02:30pm 40.8 35.8 4.6 11 20.1 NW 20 35 11 19 1011.3 1009.4 0.0
15/02:00pm 40.9 36.2 5.9 12 19.8 WNW 20 43 11 23 1012.0 1010.1 0.0
15/01:30pm 40.3 34.7 5.4 12 19.6 NNW 24 39 13 21 1012.5 1010.6 0.0
15/01:00pm 39.7 34.2 6.1 13 19.0 NNW 24 33 13 18 1013.1 1011.3 0.0
15/12:30pm 39.4 33.1 5.9 13 18.8 NNW 28 41 15 22 1013.5 1011.7 0.0
15/12:00pm 39.3 33.4 5.8 13 18.8 NNW 26 33 14 18 1013.9 1012.1 0.0
15/11:30am 38.9 32.8 6.6 14 18.3 NNW 28 37 15 20 1014.2 1012.3 0.0
15/11:00am 37.5 31.4 6.5 15 17.4 NNW 28 37 15 20 1014.4 1012.5 0.0
15/10:30am 37.2 31.8 6.3 15 17.3 NNW 24 33 13 18 1014.3 1012.4 0.0
15/10:00am 36.2 30.1 6.4 16 16.6 NNW 28 37 15 20 1014.5 1012.6 0.0
15/09:30am 35.0 30.5 7.1 18 15.6 NNW 20 26 11 14 1014.6 1012.7 0.0
15/09:00am 34.6 30.4 8.4 20 15.0 N 20 28 11 15 1014.6 1012.7 0.0
15/08:30am 33.4 31.2 10.7 25 13.4 N 13 19 7 10 1014.5 1012.6 0.0
15/08:00am 31.0 29.7 11.4 30 11.5 NNE 9 13 5 7 1014.3 1012.4 0.0
15/07:30am 29.4 28.0 11.0 32 10.7 ENE 9 11 5 6 1013.8 1012.0 0.0
15/07:00am 27.2 26.4 11.7 38 9.0 NE 7 9 4 5 1013.6 1011.8 0.0
15/06:30am 25.7 23.7 10.3 38 8.7 ENE 11 13 6 7 1013.3 1011.5 0.0
15/06:00am 25.9 23.4 9.7 36 9.1 ENE 13 13 7 7 1013.1 1011.3 0.0
15/05:30am 25.7 23.9 9.5 36 9.0 ENE 9 11 5 6 1012.9 1011.1 0.0
15/05:00am 25.7 23.8 9.1 35 9.2 ENE 9 11 5 6 1012.7 1010.8 0.0
15/04:30am 25.8 23.9 9.2 35 9.2 ENE 9 11 5 6 1012.6 1010.7 0.0
15/04:00am 26.3 24.9 8.8 33 9.7 ENE 6 7 3 4 1012.6 1010.7 0.0
15/03:30am 26.5 23.9 9.4 34 9.5 NE 13 15 7 8 1012.4 1010.5 0.0
15/03:00am 27.8 26.3 9.1 31 10.5 NNE 7 11 4 6 1012.7 1010.8 0.0
15/02:30am 28.2 25.9 9.0 30 10.7 N 11 11 6 6 1012.9 1011.1 0.0
15/02:00am 28.8 26.5 9.0 29 11.1 NE 11 13 6 7 1013.0 1011.2 0.0
15/01:30am 29.7 27.6 8.2 26 12.0 N 9 11 5 6 1013.2 1011.4 0.0
15/01:00am 30.4 27.5 8.2 25 12.4 NNE 13 15 7 8 1013.0 1011.2 0.0
15/12:30am 30.8 27.8 7.9 24 12.7 NNE 13 19 7 10 1012.9 1011.1 0.0
15/12:00am 31.1 27.3 7.5 23 13.1 N 17 20 9 11 1012.9 1011.1 0.0
 
Date/Time
EDT
Temp
°C
App
Temp
°C
Dew
Point
°C
Rel
Hum
%
Delta-T
°C
Wind Press
QNH
hPa
Press
MSL
hPa
Rain since
9am
mm
Dir  Spd
km/h
Gust
km/h
Spd
kts
Gust
kts
14/11:30pm 31.5 27.2 7.2 22 13.4 NNE 19 24 10 13 1012.7 1010.8 0.0
14/11:00pm 31.5 27.2 7.2 22 13.4 NNE 19 22 10 12 1013.0 1011.2 0.0
14/10:30pm 31.5 27.8 7.9 23 13.2 N 17 20 9 11 1013.1 1011.3 0.0
14/10:00pm 30.9 28.1 8.6 25 12.6 N 13 17 7 9 1013.2 1011.4 0.0
14/09:30pm 31.8 28.7 8.7 24 13.1 NNE 15 17 8 9 1013.0 1011.2 0.0
14/09:00pm 31.3 28.8 8.3 24 12.9 NNE 11 13 6 7 1012.9 1011.1 0.0
14/08:30pm 34.0 30.5 7.1 19 15.0 NNE 15 19 8 10 1012.7 1010.8 0.0
14/08:00pm 35.0 31.5 7.1 18 15.6 N 15 20 8 11 1012.5 1010.6 0.0
14/07:30pm 36.6 32.0 6.7 16 16.8 N 20 26 11 14 1012.2 1010.3 0.0
14/07:00pm 38.0 33.1 6.9 15 17.6 N 22 30 12 16 1012.1 1010.2 0.0
14/06:30pm 38.7 33.9 7.4 15 17.9 N 22 32 12 17 1011.9 1010.0 0.0
14/06:00pm 39.1 34.8 7.7 15 18.1 N 20 28 11 15 1012.0 1010.1 0.0
14/05:30pm 39.3 35.2 7.9 15 18.2 NNW 19 33 10 18 1012.2 1010.3 0.0
14/05:00pm 39.0 34.7 7.7 15 18.0 NNW 20 32 11 17 1012.5 1010.6 0.0
14/04:30pm 38.7 34.3 7.4 15 17.9 NNW 20 30 11 16 1012.8 1011.0 0.0
14/04:00pm 38.5 33.9 8.2 16 17.5 NNW 22 35 12 19 1013.2 1011.4 0.0
14/03:30pm 38.3 33.4 9.8 18 16.9 NNW 26 39 14 21 1013.5 1011.7 0.0
14/03:00pm 38.9 34.7 11.1 19 16.8 NNW 24 35 13 19 1013.8 1012.0 0.0
14/02:30pm 37.8 33.4 11.7 21 15.9 NNW 26 35 14 19 1014.2 1012.3 0.0
14/02:00pm 37.0 31.7 11.1 21 15.5 NNW 30 41 16 22 1014.6 1012.7 0.0
14/01:30pm 36.9 32.1 11.7 22 15.3 NNW 28 44 15 24 1015.0 1013.1 0.0
14/01:00pm 36.7 31.9 12.8 24 14.7 N 30 41 16 22 1015.5 1013.6 0.0
14/12:45pm 36.6 32.6 14.0 26 14.1 N 28 46 15 25 1015.7 1013.9 0.0
14/12:30pm 35.5 30.8 13.1 26 13.8 N 30 43 16 23 1016.0 1014.2 0.0
14/12:00pm 34.5 28.7 12.8 27 13.2 N 35 50 19 27 1016.3 1014.5 0.0
14/11:30am 34.1 29.1 14.1 30 12.4 N 33 48 18 26 1016.5 1014.7 0.0
14/11:00am 33.6 27.3 13.6 29 12.3 N 39 52 21 28 1016.5 1014.7 0.0
14/10:43am 33.1 28.9 14.7 33 11.5 N 30 48 16 26 1016.3 1014.5 0.0
14/10:30am 32.6 27.9 14.2 32 11.4 N 32 48 17 26 1016.4 1014.6 0.0
14/10:03am 31.8 26.9 14.4 34 10.8 N 33 52 18 28 1016.7 1014.9 0.0
14/10:00am 30.9 25.6 14.1 36 10.3 N 35 52 19 28 1016.7 1014.9 0.0
14/09:30am 30.3 25.3 14.0 37 10.0 N 33 46 18 25 1016.8 1015.0 0.0
14/09:17am 30.6 25.7 14.3 37 10.0 N 33 44 18 24 1016.9 1015.1 0.0
14/09:04am 29.9 25.3 13.6 36 9.9 NNE 30 54 16 29 1016.8 1015.0 0.0
14/09:00am 29.8 25.8 14.0 38 9.6 NNE 28 43 15 23 1016.9 1015.1 0.0
14/08:59am 29.9 25.9 14.0 37 9.7 NNE 28 41 15 22 1017.0 1015.2 0.0
14/08:30am 28.1 24.7 15.7 46 7.7 NE 28 41 15 22 1016.9 1015.1 0.0
14/08:00am 27.2 23.2 16.2 51 6.9 NE 32 41 17 22 1016.6 1014.8 0.0
14/07:30am 25.9 22.7 16.2 55 6.0 NE 28 35 15 19 1016.5 1014.7 0.0
14/07:00am 25.6 23.1 16.2 56 5.8 NNE 24 33 13 18 1016.2 1014.4 0.0
14/06:30am 25.4 22.5 16.0 56 5.8 NNE 26 37 14 20 1015.7 1013.9 0.0
14/06:00am 25.6 22.2 15.9 55 6.0 NNE 28 41 15 22 1015.4 1013.5 0.0
14/05:30am 25.5 23.5 16.4 57 5.7 NNE 22 28 12 15 1015.2 1013.3 0.0
14/05:00am 26.1 23.7 16.4 55 6.1 NNE 24 30 13 16 1015.4 1013.5 0.0
14/04:30am 27.2 27.1 15.9 50 7.0 N 11 19 6 10 1014.5 1012.6 0.0
14/04:00am 27.4 26.4 15.7 48 7.3 NE 15 20 8 11 1014.1 1012.2 0.0
14/03:30am 26.8 26.3 15.8 51 6.8 ENE 13 22 7 12 1013.9 1012.1 0.0
14/03:00am 27.0 24.4 16.0 51 6.8 NE 24 30 13 16 1014.1 1012.2 0.0
14/02:30am 27.0 25.8 16.0 51 6.8 ENE 17 30 9 16 1014.5 1012.6 0.0
14/02:00am 26.5 25.2 16.7 55 6.1 E 19 30 10 16 1015.1 1013.2 0.0
14/01:30am 26.4 22.8 17.2 57 5.8 ENE 32 41 17 22 1015.2 1013.3 0.0
14/01:00am 26.9 25.7 17.4 56 6.0 ENE 20 28 11 15 1016.0 1014.2 0.0
14/12:30am 28.8 26.9 16.7 48 7.7 ENE 22 30 12 16 1015.8 1014.0 0.0
14/12:00am 29.5 28.7 17.0 47 8.0 ENE 17 24 9 13 1015.8 1014.0 0.0
 
Date/Time
EDT
Temp
°C
App
Temp
°C
Dew
Point
°C
Rel
Hum
%
Delta-T
°C
Wind Press
QNH
hPa
Press
MSL
hPa
Rain since
9am
mm
Dir  Spd
km/h
Gust
km/h
Spd
kts
Gust
kts
13/11:30pm 30.8 28.8 16.4 42 9.1 NE 22 28 12 15 1015.8 1014.0 0.0
13/11:00pm 31.3 29.3 16.5 41 9.4 ENE 22 30 12 16 1015.9 1014.1 0.0
13/10:30pm 32.8 30.6 13.4 30 11.9 E 17 22 9 12 1016.0 1014.2 0.0
13/10:00pm 33.8 30.9 9.8 23 13.9 ENE 15 26 8 14 1015.7 1013.9 0.0
13/09:30pm 34.9 33.4 9.3 21 14.8 WSW 7 19 4 10 1015.5 1013.6 0.0
13/09:00pm 34.8 31.8 9.3 21 14.8 NE 15 26 8 14 1014.6 1012.7 0.0
13/08:30pm 34.9 31.0 8.6 20 15.1 NE 19 26 10 14 1014.1 1012.2 0.0
13/08:00pm 36.1 31.3 7.2 17 16.3 NE 22 28 12 15 1013.5 1011.7 0.0
13/07:30pm 37.3 32.9 7.3 16 17.0 NE 20 30 11 16 1013.2 1011.4 0.0
13/07:00pm 38.5 34.3 7.3 15 17.8 NNE 19 26 10 14 1012.9 1011.1 0.0
13/06:30pm 39.7 36.1 8.2 15 18.3 NNW 17 24 9 13 1012.9 1011.1 0.0
13/06:00pm 40.2 37.4 8.6 15 18.5 NNW 13 20 7 11 1012.9 1011.1 0.0
13/05:30pm 39.5 37.2 9.0 16 17.9 NNE 11 20 6 11 1013.0 1011.2 0.0
13/05:00pm 39.9 36.9 9.3 16 18.1 NNW 15 28 8 15 1013.3 1011.5 0.0
13/04:30pm 40.2 36.9 9.6 16 18.2 NW 17 32 9 17 1013.6 1011.8 0.0
13/04:00pm 39.8 36.7 10.2 17 17.7 NNW 17 30 9 16 1013.9 1012.1 0.0
13/03:30pm 38.9 37.1 9.4 17 17.4 NNW 9 20 5 11 1014.3 1012.4 0.0
13/03:00pm 39.7 36.0 10.1 17 17.7 NNW 20 32 11 17 1014.6 1012.7 0.0
13/02:30pm 39.1 35.4 9.6 17 17.5 N 19 32 10 17 1014.9 1013.0 0.0
13/02:00pm 38.1 34.8 9.6 18 16.8 N 17 26 9 14 1015.3 1013.4 0.0
13/01:30pm 39.0 36.2 11.2 19 16.8 N 17 28 9 15 1015.6 1013.8 0.0
13/01:00pm 37.4 34.3 12.1 22 15.4 N 20 30 11 16 1016.1 1014.3 0.0
13/12:30pm 37.4 33.7 12.8 23 15.2 N 24 48 13 26 1016.3 1014.5 0.0
13/12:00pm 37.4 33.5 12.1 22 15.4 N 24 39 13 21 1016.5 1014.7 0.0
13/11:30am 36.7 32.6 12.8 24 14.7 N 26 39 14 21 1016.5 1014.7 0.0

Other Formats:

Comma delimited format used in spreadsheet applications
http://www.bom.gov.au/fwo/IDN60801/IDN60801.95717.axf

JavaScript Object Notation format (JSON) in row-major order
http://www.bom.gov.au/fwo/IDN60801/IDN60801.95717.json